Davis, South Dakota
Current Conditions -  °F | °C
As of 11:56 AM on Tuesday 21 Oct 2014 (Local Time) from KFSD Reporting Station
Clear Clear  
Wind Chill: 66°   Ceiling: Unl
Heat Index: 66°   Visibility: 10mi
Dew Point: 42°   Wind: 16mph
Humidity: 42%   Direction: 160°SSE
Pressure: 30.05"   Gusts: 22mph
Location:  43.26°N, 97°W
Report Text: KFSD 211656Z 16014G19KT 10SM CLR 19/06 A3005 RMK AO2 SLP177 T01890056
Loading
Personal Weather Stations






























Interactive Weather Map
Tropical Storm Tracking
New forecast layout! Learn more

10-Day Weather Forecast

Advertisements
Track Severe Weather on mobile